Nao Victoria — ECHH — position and weather

sailwx.info

Track history (hours):
 
Tides and Currents Weather Stations Pressure Air Temp Water Temp Dewpoint Dewpoint Depression Visibility Wind Speed Wind Dir Waves Ship Positions

Nao Victoria

Last reported at 2018-May-23 10:29 UTC. Time now 2018-May-23 10:47 UTC.
Position N 37°27' W 000°55'.

Length 25 m; draft 3.2 m.

Type: Sailing vessel. MMSI: 224123770.

Date/timePositionNaut miles runAvg speedWind from/ knotsBaromVisibWave heightAir tempDewpointWater temp
2018-May-23 10:29N 37°27' W 000°55'2 4.7
2018-May-23 10:00N 37°28' W 000°52'3 4.3
2018-May-23 09:22N 37°29' W 000°49'2 4.4
2018-May-23 08:58N 37°30' W 000°47'11 6.0
2018-May-23 07:11N 37°37' W 000°37'3 5.4
2018-May-23 06:34N 37°39' W 000°34'1 5.4
2018-May-23 06:25N 37°40' W 000°33'2 5.5
2018-May-23 06:00N 37°42' W 000°32'3 5.5
2018-May-23 05:27N 37°45' W 000°30'6 6.8
2018-May-23 04:30N 37°50' W 000°26'5 7.0
2018-May-23 03:45N 37°55' W 000°23'2 7.0
2018-May-23 03:30N 37°57' W 000°22'4 7.1
2018-May-23 02:53N 38°00' W 000°19'3 7.1
2018-May-23 02:30N 38°03' W 000°17'4 7.0
2018-May-23 01:58N 38°05' W 000°14'3 6.8
2018-May-23 01:30N 38°08' W 000°12'8 6.6
2018-May-23 00:14N 38°15' W 000°06'3 6.7
2018-May-22 23:47N 38°17' W 000°04'2 6.7
2018-May-22 23:28N 38°19' W 000°02'  
Track history (hours):
 
Tides and Currents Weather Stations Pressure Air Temp Water Temp Dewpoint Dewpoint Depression Visibility Wind Speed Wind Dir Waves Ship Positions

Nao Victoria

Last reported at 2018-May-23 10:29 UTC. Time now 2018-May-23 10:47 UTC.
Position N 37°27' W 000°55'.

Length 25 m; draft 3.2 m.

Type: Sailing vessel. MMSI: 224123770.

Date/timePositionNaut miles runAvg speedWind from/ knotsBaromVisibWave heightAir tempDewpointWater temp
2018-May-23 10:29N 37°27' W 000°55'2 4.7
2018-May-23 10:00N 37°28' W 000°52'3 4.3
2018-May-23 09:22N 37°29' W 000°49'2 4.4
2018-May-23 08:58N 37°30' W 000°47'11 6.0
2018-May-23 07:11N 37°37' W 000°37'3 5.4
2018-May-23 06:34N 37°39' W 000°34'1 5.4
2018-May-23 06:25N 37°40' W 000°33'2 5.5
2018-May-23 06:00N 37°42' W 000°32'3 5.5
2018-May-23 05:27N 37°45' W 000°30'6 6.8
2018-May-23 04:30N 37°50' W 000°26'5 7.0
2018-May-23 03:45N 37°55' W 000°23'2 7.0
2018-May-23 03:30N 37°57' W 000°22'4 7.1
2018-May-23 02:53N 38°00' W 000°19'3 7.1
2018-May-23 02:30N 38°03' W 000°17'4 7.0
2018-May-23 01:58N 38°05' W 000°14'3 6.8
2018-May-23 01:30N 38°08' W 000°12'8 6.6
2018-May-23 00:14N 38°15' W 000°06'3 6.7
2018-May-22 23:47N 38°17' W 000°04'2 6.7
2018-May-22 23:28N 38°19' W 000°02'  

Dump ship's entire track history